Terminal Aerodrome Forecast
Issued by NWS

Home | Current Version | Previous Version | Text Only | Print | Product List | Glossary On
Versions: 1 2 3 4 5 6 7 8 9 10 11 12 13 14 15 16 17 18 19 20 21 22 23 24 25 26
000
FTUS43 KLSX 162228 AAC
TAFCPS
TAF AMD
KCPS 162228Z 1622/1718 VRB05KT 5SM SHRA BKN050
      TEMPO 1622/1701 2SM +TSRA BKN020CB
     FM170600 19007KT 3SM -SHRA VCTS BKN035CB
     FM170900 22005KT P6SM VCTS OVC025CB
     FM171400 23007KT P6SM BKN030
     FM171700 25007KT P6SM SCT030=

USA.gov is the U.S. government's official web portal to all federal, state and local government web resources and services.